< Typhoon 199318 1993 Season Typhoon 199320 >
Typhoon 199319 (ED)
General InformationTrack Information on Google MapsDetailed Wind InformationList of All Images || Disaster Info.ResourceGoogle EarthGE AnimationAtom FeedGeoJSON
Detalied Best Track (Time Zone = UTC)
Year Month Day Hour Lat. Long. Pressure (hPa) Wind (kt) Class Image Chart
1993 9 30 00 12.5 146.0 1008 0 2 Image Chart
1993 9 30 06 13.0 145.7 1004 0 2 Image Chart
1993 9 30 12 13.4 145.3 1000 0 2 Image Chart
1993 9 30 18 13.8 144.3 998 35 3 Image Chart
1993 10 1 00 14.1 143.3 992 40 3 Image Chart
1993 10 1 06 14.2 142.7 990 45 3 Image Chart
1993 10 1 12 14.3 142.0 980 55 4 Image Chart
1993 10 1 18 14.6 141.3 975 60 4 Image Chart
1993 10 2 00 15.0 140.5 965 70 5 Image Chart
1993 10 2 06 15.4 139.8 965 70 5 Image Chart
1993 10 2 12 16.1 138.7 965 70 5 Image Chart
1993 10 2 18 16.8 137.6 960 75 5 Image Chart
1993 10 3 00 17.4 136.6 955 75 5 Image Chart
1993 10 3 06 17.9 135.8 950 80 5 Image Chart
1993 10 3 12 18.3 135.2 950 80 5 Image Chart
1993 10 3 18 18.8 134.3 950 80 5 Image Chart
1993 10 4 00 19.2 133.6 945 85 5 Image Chart
1993 10 4 06 19.5 133.0 935 90 5 Image Chart
1993 10 4 12 19.8 132.7 925 95 5 Image Chart
1993 10 4 18 20.3 132.5 920 100 5 Image Chart
1993 10 5 00 20.9 132.6 915 100 5 Image Chart
1993 10 5 06 21.6 132.8 915 100 5 Image Chart
1993 10 5 09 21.9 132.9 920 100 5 Image Chart
1993 10 5 12 22.2 133.1 925 95 5 Image Chart
1993 10 5 15 22.5 133.2 930 90 5 Image Chart
1993 10 5 18 22.9 133.4 940 85 5 Image Chart
1993 10 5 21 23.4 133.7 945 85 5 Image Chart
1993 10 6 00 23.8 134.0 950 80 5 Image Chart
1993 10 6 06 24.8 134.7 950 80 5 Image Chart
1993 10 6 12 25.6 135.6 950 80 5 Image Chart
1993 10 6 18 27.0 136.6 955 75 5 Image Chart
1993 10 7 00 28.5 137.8 965 70 5 Image Chart
1993 10 7 03 29.3 138.6 965 70 5 Image Chart
1993 10 7 06 30.1 139.6 970 65 5 Image Chart
1993 10 7 09 30.8 140.4 975 60 4 Image Chart
1993 10 7 12 31.6 141.3 975 60 4 Image Chart
1993 10 7 15 32.3 142.3 975 60 4 Image Chart
1993 10 7 18 33.1 143.5 980 55 4 Image Chart
1993 10 7 21 33.9 144.9 980 55 4 Image Chart
1993 10 8 00 34.7 146.3 985 50 4 Image Chart
1993 10 8 06 35.7 149.6 985 50 4 Image Chart
1993 10 8 12 37.0 152.5 988 0 6 Image Chart
1993 10 8 18 39.0 156.0 988 0 6 Image Chart
1993 10 9 00 41.5 159.0 988 0 6 Image Chart
Japan Meteorological Agency Best Track Data | Correction Date : 1994-01-10
< Typhoon 199318 1993 Season Typhoon 199320 >

Help